sensor_id;sensor_type;location;lat;lon;timestamp;temperature;humidity
16485;DHT22;8353;47.856;12.344;2024-01-30T00:01:59;4.40;99.90
16485;DHT22;8353;47.856;12.344;2024-01-30T00:04:32;4.50;99.90
16485;DHT22;8353;47.856;12.344;2024-01-30T00:07:03;4.50;99.90
16485;DHT22;8353;47.856;12.344;2024-01-30T00:09:34;4.60;99.90
16485;DHT22;8353;47.856;12.344;2024-01-30T00:12:04;4.60;99.90
16485;DHT22;8353;47.856;12.344;2024-01-30T00:14:36;4.60;99.90
16485;DHT22;8353;47.856;12.344;2024-01-30T00:17:06;4.50;99.90
16485;DHT22;8353;47.856;12.344;2024-01-30T00:19:36;4.50;99.90
16485;DHT22;8353;47.856;12.344;2024-01-30T00:22:06;4.50;99.90
16485;DHT22;8353;47.856;12.344;2024-01-30T00:24:37;4.50;99.90
16485;DHT22;8353;47.856;12.344;2024-01-30T00:27:08;4.50;99.90
16485;DHT22;8353;47.856;12.344;2024-01-30T00:29:40;4.50;99.90
16485;DHT22;8353;47.856;12.344;2024-01-30T00:32:11;4.40;99.90
16485;DHT22;8353;47.856;12.344;2024-01-30T00:34:41;4.30;99.90
16485;DHT22;8353;47.856;12.344;2024-01-30T00:37:12;4.30;99.90
16485;DHT22;8353;47.856;12.344;2024-01-30T00:39:43;4.50;99.90
16485;DHT22;8353;47.856;12.344;2024-01-30T00:42:13;4.50;99.90
16485;DHT22;8353;47.856;12.344;2024-01-30T00:44:46;4.50;99.90
16485;DHT22;8353;47.856;12.344;2024-01-30T00:47:17;4.40;99.90
16485;DHT22;8353;47.856;12.344;2024-01-30T00:49:47;4.40;99.90
16485;DHT22;8353;47.856;12.344;2024-01-30T00:52:17;4.50;99.90
16485;DHT22;8353;47.856;12.344;2024-01-30T00:54:47;4.40;99.90
16485;DHT22;8353;47.856;12.344;2024-01-30T00:57:17;4.50;99.90
16485;DHT22;8353;47.856;12.344;2024-01-30T00:59:49;4.40;99.90
16485;DHT22;8353;47.856;12.344;2024-01-30T01:02:20;4.40;99.90
16485;DHT22;8353;47.856;12.344;2024-01-30T01:04:50;4.50;99.90
16485;DHT22;8353;47.856;12.344;2024-01-30T01:07:21;4.50;99.90
16485;DHT22;8353;47.856;12.344;2024-01-30T01:09:51;4.40;99.90
16485;DHT22;8353;47.856;12.344;2024-01-30T01:12:21;4.30;99.90
16485;DHT22;8353;47.856;12.344;2024-01-30T01:14:53;4.30;99.90
16485;DHT22;8353;47.856;12.344;2024-01-30T01:17:24;4.30;99.90
16485;DHT22;8353;47.856;12.344;2024-01-30T01:19:54;4.30;99.90
16485;DHT22;8353;47.856;12.344;2024-01-30T01:22:25;4.40;99.90
16485;DHT22;8353;47.856;12.344;2024-01-30T01:24:55;4.30;99.90
16485;DHT22;8353;47.856;12.344;2024-01-30T01:27:25;4.20;99.90
16485;DHT22;8353;47.856;12.344;2024-01-30T01:29:57;4.10;99.90
16485;DHT22;8353;47.856;12.344;2024-01-30T01:32:27;4.00;99.90
16485;DHT22;8353;47.856;12.344;2024-01-30T01:34:58;4.00;99.90
16485;DHT22;8353;47.856;12.344;2024-01-30T01:37:29;4.00;99.90
16485;DHT22;8353;47.856;12.344;2024-01-30T01:40:00;4.00;99.90
16485;DHT22;8353;47.856;12.344;2024-01-30T01:42:30;4.10;99.90
16485;DHT22;8353;47.856;12.344;2024-01-30T01:45:02;4.10;99.90
16485;DHT22;8353;47.856;12.344;2024-01-30T01:47:33;4.10;99.90
16485;DHT22;8353;47.856;12.344;2024-01-30T01:50:03;4.10;99.90
16485;DHT22;8353;47.856;12.344;2024-01-30T01:52:34;4.10;99.90
16485;DHT22;8353;47.856;12.344;2024-01-30T01:55:06;4.20;99.90
16485;DHT22;8353;47.856;12.344;2024-01-30T01:57:37;4.10;99.90
16485;DHT22;8353;47.856;12.344;2024-01-30T02:00:10;4.30;99.90
16485;DHT22;8353;47.856;12.344;2024-01-30T02:02:41;4.30;99.90
16485;DHT22;8353;47.856;12.344;2024-01-30T02:05:14;4.10;99.90
16485;DHT22;8353;47.856;12.344;2024-01-30T02:07:45;4.10;99.90
16485;DHT22;8353;47.856;12.344;2024-01-30T02:10:15;4.10;99.90
16485;DHT22;8353;47.856;12.344;2024-01-30T02:12:46;4.00;99.90
16485;DHT22;8353;47.856;12.344;2024-01-30T02:15:18;4.00;99.90
16485;DHT22;8353;47.856;12.344;2024-01-30T02:17:48;4.00;99.90
16485;DHT22;8353;47.856;12.344;2024-01-30T02:20:18;4.00;99.90
16485;DHT22;8353;47.856;12.344;2024-01-30T02:22:50;4.00;99.90
16485;DHT22;8353;47.856;12.344;2024-01-30T02:25:30;3.90;99.90
16485;DHT22;8353;47.856;12.344;2024-01-30T02:28:01;3.90;99.90
16485;DHT22;8353;47.856;12.344;2024-01-30T02:30:31;3.90;99.90
16485;DHT22;8353;47.856;12.344;2024-01-30T02:33:01;3.80;99.90
16485;DHT22;8353;47.856;12.344;2024-01-30T02:35:32;3.80;99.90
16485;DHT22;8353;47.856;12.344;2024-01-30T02:38:04;3.90;99.90
16485;DHT22;8353;47.856;12.344;2024-01-30T02:40:34;3.80;99.90
16485;DHT22;8353;47.856;12.344;2024-01-30T02:43:05;3.80;99.90
16485;DHT22;8353;47.856;12.344;2024-01-30T02:45:35;3.80;99.90
16485;DHT22;8353;47.856;12.344;2024-01-30T02:48:06;3.80;99.90
16485;DHT22;8353;47.856;12.344;2024-01-30T02:50:37;3.70;99.90
16485;DHT22;8353;47.856;12.344;2024-01-30T02:53:08;3.70;99.90
16485;DHT22;8353;47.856;12.344;2024-01-30T02:55:39;3.80;99.90
16485;DHT22;8353;47.856;12.344;2024-01-30T02:58:09;3.90;99.90
16485;DHT22;8353;47.856;12.344;2024-01-30T03:00:40;4.00;99.90
16485;DHT22;8353;47.856;12.344;2024-01-30T03:03:10;3.90;99.90
16485;DHT22;8353;47.856;12.344;2024-01-30T03:05:40;3.90;99.90
16485;DHT22;8353;47.856;12.344;2024-01-30T03:08:11;3.90;99.90
16485;DHT22;8353;47.856;12.344;2024-01-30T03:10:42;3.90;99.90
16485;DHT22;8353;47.856;12.344;2024-01-30T03:13:13;3.90;99.90
16485;DHT22;8353;47.856;12.344;2024-01-30T03:15:43;3.80;99.90
16485;DHT22;8353;47.856;12.344;2024-01-30T03:18:13;3.80;99.90
16485;DHT22;8353;47.856;12.344;2024-01-30T03:20:44;3.80;99.90
16485;DHT22;8353;47.856;12.344;2024-01-30T03:23:16;3.70;99.90
16485;DHT22;8353;47.856;12.344;2024-01-30T03:25:47;3.70;99.90
16485;DHT22;8353;47.856;12.344;2024-01-30T03:28:17;3.80;99.90
16485;DHT22;8353;47.856;12.344;2024-01-30T03:30:48;3.70;99.90
16485;DHT22;8353;47.856;12.344;2024-01-30T03:33:18;3.70;99.90
16485;DHT22;8353;47.856;12.344;2024-01-30T03:35:48;3.70;99.90
16485;DHT22;8353;47.856;12.344;2024-01-30T03:38:20;3.70;99.90
16485;DHT22;8353;47.856;12.344;2024-01-30T03:40:50;3.70;99.90
16485;DHT22;8353;47.856;12.344;2024-01-30T03:43:21;3.70;99.90
16485;DHT22;8353;47.856;12.344;2024-01-30T03:45:52;3.60;99.90
16485;DHT22;8353;47.856;12.344;2024-01-30T03:48:22;3.60;99.90
16485;DHT22;8353;47.856;12.344;2024-01-30T03:50:52;3.60;99.90
16485;DHT22;8353;47.856;12.344;2024-01-30T03:53:23;3.60;99.90
16485;DHT22;8353;47.856;12.344;2024-01-30T03:55:54;3.60;99.90
16485;DHT22;8353;47.856;12.344;2024-01-30T03:58:24;3.50;99.90
16485;DHT22;8353;47.856;12.344;2024-01-30T04:00:54;3.50;99.90
16485;DHT22;8353;47.856;12.344;2024-01-30T04:03:25;3.50;99.90
16485;DHT22;8353;47.856;12.344;2024-01-30T04:05:55;3.60;99.90
16485;DHT22;8353;47.856;12.344;2024-01-30T04:08:27;3.70;99.90
16485;DHT22;8353;47.856;12.344;2024-01-30T04:10:58;3.80;99.90
16485;DHT22;8353;47.856;12.344;2024-01-30T04:13:28;3.90;99.90
16485;DHT22;8353;47.856;12.344;2024-01-30T04:15:59;3.80;99.90
16485;DHT22;8353;47.856;12.344;2024-01-30T04:18:30;3.70;99.90
16485;DHT22;8353;47.856;12.344;2024-01-30T04:21:01;3.70;99.90
16485;DHT22;8353;47.856;12.344;2024-01-30T04:23:33;3.60;99.90
16485;DHT22;8353;47.856;12.344;2024-01-30T04:26:03;3.70;99.90
16485;DHT22;8353;47.856;12.344;2024-01-30T04:28:34;3.70;99.90
16485;DHT22;8353;47.856;12.344;2024-01-30T04:31:04;3.70;99.90
16485;DHT22;8353;47.856;12.344;2024-01-30T04:33:34;3.80;99.90
16485;DHT22;8353;47.856;12.344;2024-01-30T04:36:07;3.80;99.90
16485;DHT22;8353;47.856;12.344;2024-01-30T04:38:39;3.70;99.90
16485;DHT22;8353;47.856;12.344;2024-01-30T04:41:10;3.70;99.90
16485;DHT22;8353;47.856;12.344;2024-01-30T04:43:40;3.70;99.90
16485;DHT22;8353;47.856;12.344;2024-01-30T04:46:11;3.70;99.90
16485;DHT22;8353;47.856;12.344;2024-01-30T04:48:41;3.80;99.90
16485;DHT22;8353;47.856;12.344;2024-01-30T04:51:12;3.70;99.90
16485;DHT22;8353;47.856;12.344;2024-01-30T04:53:44;3.80;99.90
16485;DHT22;8353;47.856;12.344;2024-01-30T04:56:14;3.70;99.90
16485;DHT22;8353;47.856;12.344;2024-01-30T04:58:44;3.60;99.90
16485;DHT22;8353;47.856;12.344;2024-01-30T05:01:15;3.50;99.90
16485;DHT22;8353;47.856;12.344;2024-01-30T05:03:45;3.60;99.90
16485;DHT22;8353;47.856;12.344;2024-01-30T05:06:24;3.50;99.90
16485;DHT22;8353;47.856;12.344;2024-01-30T05:08:56;3.60;99.90
16485;DHT22;8353;47.856;12.344;2024-01-30T05:11:26;3.60;99.90
16485;DHT22;8353;47.856;12.344;2024-01-30T05:13:56;3.60;99.90
16485;DHT22;8353;47.856;12.344;2024-01-30T05:16:27;3.50;99.90
16485;DHT22;8353;47.856;12.344;2024-01-30T05:18:57;3.50;99.90
16485;DHT22;8353;47.856;12.344;2024-01-30T05:21:27;3.60;99.90
16485;DHT22;8353;47.856;12.344;2024-01-30T05:23:59;3.50;99.90
16485;DHT22;8353;47.856;12.344;2024-01-30T05:26:29;3.60;99.90
16485;DHT22;8353;47.856;12.344;2024-01-30T05:28:59;3.50;99.90
16485;DHT22;8353;47.856;12.344;2024-01-30T05:31:30;3.50;99.90
16485;DHT22;8353;47.856;12.344;2024-01-30T05:34:00;3.60;99.90
16485;DHT22;8353;47.856;12.344;2024-01-30T05:36:31;3.60;99.90
16485;DHT22;8353;47.856;12.344;2024-01-30T05:39:03;3.60;99.90
16485;DHT22;8353;47.856;12.344;2024-01-30T05:41:34;3.60;99.90
16485;DHT22;8353;47.856;12.344;2024-01-30T05:44:05;3.50;99.90
16485;DHT22;8353;47.856;12.344;2024-01-30T05:46:35;3.50;99.90
16485;DHT22;8353;47.856;12.344;2024-01-30T05:49:06;3.40;99.90
16485;DHT22;8353;47.856;12.344;2024-01-30T05:51:36;3.30;99.90
16485;DHT22;8353;47.856;12.344;2024-01-30T05:54:09;3.40;99.90
16485;DHT22;8353;47.856;12.344;2024-01-30T05:56:39;3.50;99.90
16485;DHT22;8353;47.856;12.344;2024-01-30T05:59:09;3.50;99.90
16485;DHT22;8353;47.856;12.344;2024-01-30T06:01:45;3.50;99.90
16485;DHT22;8353;47.856;12.344;2024-01-30T06:04:15;3.50;99.90
16485;DHT22;8353;47.856;12.344;2024-01-30T06:06:46;3.50;99.90
16485;DHT22;8353;47.856;12.344;2024-01-30T06:09:17;3.40;99.90
16485;DHT22;8353;47.856;12.344;2024-01-30T06:11:47;3.40;99.90
16485;DHT22;8353;47.856;12.344;2024-01-30T06:14:18;3.40;99.90
16485;DHT22;8353;47.856;12.344;2024-01-30T06:16:49;3.50;99.90
16485;DHT22;8353;47.856;12.344;2024-01-30T06:19:19;3.50;99.90
16485;DHT22;8353;47.856;12.344;2024-01-30T06:21:50;3.50;99.90
16485;DHT22;8353;47.856;12.344;2024-01-30T06:24:21;3.40;99.90
16485;DHT22;8353;47.856;12.344;2024-01-30T06:26:51;3.30;99.90
16485;DHT22;8353;47.856;12.344;2024-01-30T06:29:22;3.20;99.90
16485;DHT22;8353;47.856;12.344;2024-01-30T06:31:53;3.30;99.90
16485;DHT22;8353;47.856;12.344;2024-01-30T06:34:24;3.40;99.90
16485;DHT22;8353;47.856;12.344;2024-01-30T06:36:55;3.30;99.90
16485;DHT22;8353;47.856;12.344;2024-01-30T06:39:27;3.30;99.90
16485;DHT22;8353;47.856;12.344;2024-01-30T06:41:57;3.20;99.90
16485;DHT22;8353;47.856;12.344;2024-01-30T06:44:27;3.20;99.90
16485;DHT22;8353;47.856;12.344;2024-01-30T06:46:58;3.30;99.90
16485;DHT22;8353;47.856;12.344;2024-01-30T06:49:29;3.30;99.90
16485;DHT22;8353;47.856;12.344;2024-01-30T06:52:00;3.30;99.90
16485;DHT22;8353;47.856;12.344;2024-01-30T06:54:32;3.40;99.90
16485;DHT22;8353;47.856;12.344;2024-01-30T06:57:03;3.60;99.90
16485;DHT22;8353;47.856;12.344;2024-01-30T06:59:33;3.60;99.90
16485;DHT22;8353;47.856;12.344;2024-01-30T07:02:03;3.50;99.90
16485;DHT22;8353;47.856;12.344;2024-01-30T07:04:34;3.40;99.90
16485;DHT22;8353;47.856;12.344;2024-01-30T07:07:06;3.40;99.90
16485;DHT22;8353;47.856;12.344;2024-01-30T07:09:42;3.40;99.90
16485;DHT22;8353;47.856;12.344;2024-01-30T07:12:13;3.30;99.90
16485;DHT22;8353;47.856;12.344;2024-01-30T07:14:43;3.30;99.90
16485;DHT22;8353;47.856;12.344;2024-01-30T07:17:13;3.30;99.90
16485;DHT22;8353;47.856;12.344;2024-01-30T07:19:43;3.40;99.90
16485;DHT22;8353;47.856;12.344;2024-01-30T07:22:14;3.40;99.90
16485;DHT22;8353;47.856;12.344;2024-01-30T07:24:45;3.30;99.90
16485;DHT22;8353;47.856;12.344;2024-01-30T07:27:16;3.40;99.90
16485;DHT22;8353;47.856;12.344;2024-01-30T07:29:47;3.50;99.90
16485;DHT22;8353;47.856;12.344;2024-01-30T07:32:17;3.50;99.90
16485;DHT22;8353;47.856;12.344;2024-01-30T07:34:49;3.50;99.90
16485;DHT22;8353;47.856;12.344;2024-01-30T07:37:19;3.50;99.90
16485;DHT22;8353;47.856;12.344;2024-01-30T07:39:51;3.60;99.90
16485;DHT22;8353;47.856;12.344;2024-01-30T07:42:21;3.70;99.90
16485;DHT22;8353;47.856;12.344;2024-01-30T07:44:51;3.80;99.90
16485;DHT22;8353;47.856;12.344;2024-01-30T07:47:25;3.90;99.90
16485;DHT22;8353;47.856;12.344;2024-01-30T07:49:55;4.10;99.90
16485;DHT22;8353;47.856;12.344;2024-01-30T07:52:25;4.00;99.90
16485;DHT22;8353;47.856;12.344;2024-01-30T07:54:57;4.20;99.90
16485;DHT22;8353;47.856;12.344;2024-01-30T07:57:27;4.40;99.90
16485;DHT22;8353;47.856;12.344;2024-01-30T07:59:58;4.50;99.90
16485;DHT22;8353;47.856;12.344;2024-01-30T08:02:29;4.60;99.90
16485;DHT22;8353;47.856;12.344;2024-01-30T08:04:59;4.70;99.90
16485;DHT22;8353;47.856;12.344;2024-01-30T08:07:29;4.70;99.90
16485;DHT22;8353;47.856;12.344;2024-01-30T08:10:01;4.70;99.90
16485;DHT22;8353;47.856;12.344;2024-01-30T08:12:31;4.80;99.90
16485;DHT22;8353;47.856;12.344;2024-01-30T08:15:02;4.90;99.90
16485;DHT22;8353;47.856;12.344;2024-01-30T08:17:33;5.00;99.90
16485;DHT22;8353;47.856;12.344;2024-01-30T08:20:03;4.90;99.90
16485;DHT22;8353;47.856;12.344;2024-01-30T08:22:33;5.10;99.90
16485;DHT22;8353;47.856;12.344;2024-01-30T08:25:06;5.20;99.90
16485;DHT22;8353;47.856;12.344;2024-01-30T08:27:38;5.20;99.90
16485;DHT22;8353;47.856;12.344;2024-01-30T08:30:10;5.30;99.90
16485;DHT22;8353;47.856;12.344;2024-01-30T08:32:40;5.40;99.90
16485;DHT22;8353;47.856;12.344;2024-01-30T08:35:11;5.40;99.90
16485;DHT22;8353;47.856;12.344;2024-01-30T08:37:43;5.50;99.90
16485;DHT22;8353;47.856;12.344;2024-01-30T08:40:15;5.50;99.90
16485;DHT22;8353;47.856;12.344;2024-01-30T08:42:46;5.60;99.90
16485;DHT22;8353;47.856;12.344;2024-01-30T08:45:16;5.60;99.90
16485;DHT22;8353;47.856;12.344;2024-01-30T08:47:46;5.60;99.90
16485;DHT22;8353;47.856;12.344;2024-01-30T08:50:17;5.70;99.90
16485;DHT22;8353;47.856;12.344;2024-01-30T08:52:48;5.80;99.90
16485;DHT22;8353;47.856;12.344;2024-01-30T08:55:19;6.00;99.90
16485;DHT22;8353;47.856;12.344;2024-01-30T08:57:56;6.00;99.90
16485;DHT22;8353;47.856;12.344;2024-01-30T09:00:27;6.10;99.90
16485;DHT22;8353;47.856;12.344;2024-01-30T09:02:57;6.30;99.90
16485;DHT22;8353;47.856;12.344;2024-01-30T09:05:27;6.40;99.90
16485;DHT22;8353;47.856;12.344;2024-01-30T09:07:58;6.50;99.90
16485;DHT22;8353;47.856;12.344;2024-01-30T09:10:29;6.60;99.90
16485;DHT22;8353;47.856;12.344;2024-01-30T09:12:59;6.70;99.90
16485;DHT22;8353;47.856;12.344;2024-01-30T09:15:30;6.80;99.90
16485;DHT22;8353;47.856;12.344;2024-01-30T09:18:00;6.90;99.90
16485;DHT22;8353;47.856;12.344;2024-01-30T09:20:30;7.10;99.90
16485;DHT22;8353;47.856;12.344;2024-01-30T09:23:00;7.20;99.90
16485;DHT22;8353;47.856;12.344;2024-01-30T09:25:32;7.20;99.90
16485;DHT22;8353;47.856;12.344;2024-01-30T09:28:03;7.40;99.90
16485;DHT22;8353;47.856;12.344;2024-01-30T09:30:34;7.50;99.90
16485;DHT22;8353;47.856;12.344;2024-01-30T09:33:04;7.60;99.90
16485;DHT22;8353;47.856;12.344;2024-01-30T09:35:35;7.60;99.90
16485;DHT22;8353;47.856;12.344;2024-01-30T09:38:13;7.70;99.90
16485;DHT22;8353;47.856;12.344;2024-01-30T09:41:09;7.70;99.90
16485;DHT22;8353;47.856;12.344;2024-01-30T09:43:40;7.90;99.90
16485;DHT22;8353;47.856;12.344;2024-01-30T09:46:12;8.00;99.90
16485;DHT22;8353;47.856;12.344;2024-01-30T09:48:46;8.10;99.90
16485;DHT22;8353;47.856;12.344;2024-01-30T09:51:17;8.20;99.90
16485;DHT22;8353;47.856;12.344;2024-01-30T09:53:48;8.20;99.90
16485;DHT22;8353;47.856;12.344;2024-01-30T09:56:21;8.20;99.90
16485;DHT22;8353;47.856;12.344;2024-01-30T09:58:52;8.20;99.90
16485;DHT22;8353;47.856;12.344;2024-01-30T10:01:22;8.40;99.90
16485;DHT22;8353;47.856;12.344;2024-01-30T10:03:53;8.70;99.90
16485;DHT22;8353;47.856;12.344;2024-01-30T10:06:25;8.70;99.90
16485;DHT22;8353;47.856;12.344;2024-01-30T10:08:55;8.70;99.90
16485;DHT22;8353;47.856;12.344;2024-01-30T10:11:27;8.80;99.90
16485;DHT22;8353;47.856;12.344;2024-01-30T10:13:58;8.90;99.90
16485;DHT22;8353;47.856;12.344;2024-01-30T10:16:28;9.00;99.90
16485;DHT22;8353;47.856;12.344;2024-01-30T10:18:59;9.10;99.90
16485;DHT22;8353;47.856;12.344;2024-01-30T10:21:30;9.30;99.90
16485;DHT22;8353;47.856;12.344;2024-01-30T10:24:00;9.40;99.90
16485;DHT22;8353;47.856;12.344;2024-01-30T10:26:32;9.50;99.90
16485;DHT22;8353;47.856;12.344;2024-01-30T10:29:03;9.60;99.90
16485;DHT22;8353;47.856;12.344;2024-01-30T10:31:35;9.60;99.90
16485;DHT22;8353;47.856;12.344;2024-01-30T10:34:05;9.60;99.90
16485;DHT22;8353;47.856;12.344;2024-01-30T10:36:40;9.70;99.90
16485;DHT22;8353;47.856;12.344;2024-01-30T10:39:11;9.80;99.90
16485;DHT22;8353;47.856;12.344;2024-01-30T10:41:44;10.10;99.90
16485;DHT22;8353;47.856;12.344;2024-01-30T10:44:19;10.10;99.90
16485;DHT22;8353;47.856;12.344;2024-01-30T10:47:00;10.40;99.90
16485;DHT22;8353;47.856;12.344;2024-01-30T10:49:33;10.40;99.90
16485;DHT22;8353;47.856;12.344;2024-01-30T10:52:05;10.30;99.90
16485;DHT22;8353;47.856;12.344;2024-01-30T10:54:36;10.50;99.90
16485;DHT22;8353;47.856;12.344;2024-01-30T10:57:15;10.50;99.90
16485;DHT22;8353;47.856;12.344;2024-01-30T10:59:46;10.50;99.90
16485;DHT22;8353;47.856;12.344;2024-01-30T11:02:18;10.70;99.90
16485;DHT22;8353;47.856;12.344;2024-01-30T11:04:48;10.80;99.90
16485;DHT22;8353;47.856;12.344;2024-01-30T11:07:24;11.00;99.90
16485;DHT22;8353;47.856;12.344;2024-01-30T11:10:00;11.10;99.90
16485;DHT22;8353;47.856;12.344;2024-01-30T11:12:37;11.10;99.90
16485;DHT22;8353;47.856;12.344;2024-01-30T11:15:12;11.20;99.90
16485;DHT22;8353;47.856;12.344;2024-01-30T11:17:44;11.40;99.90
16485;DHT22;8353;47.856;12.344;2024-01-30T11:20:16;11.50;99.90
16485;DHT22;8353;47.856;12.344;2024-01-30T11:22:51;11.50;99.90
16485;DHT22;8353;47.856;12.344;2024-01-30T11:25:23;11.50;99.90
16485;DHT22;8353;47.856;12.344;2024-01-30T11:27:55;11.70;99.90
16485;DHT22;8353;47.856;12.344;2024-01-30T11:30:26;11.70;99.90
16485;DHT22;8353;47.856;12.344;2024-01-30T11:33:04;11.70;99.90
16485;DHT22;8353;47.856;12.344;2024-01-30T11:35:36;11.70;99.90
16485;DHT22;8353;47.856;12.344;2024-01-30T11:38:09;11.90;99.90
16485;DHT22;8353;47.856;12.344;2024-01-30T11:40:40;12.00;99.90
16485;DHT22;8353;47.856;12.344;2024-01-30T11:43:12;12.10;99.90
16485;DHT22;8353;47.856;12.344;2024-01-30T11:45:42;12.10;99.90
16485;DHT22;8353;47.856;12.344;2024-01-30T11:48:14;12.30;99.90
16485;DHT22;8353;47.856;12.344;2024-01-30T11:50:44;12.30;99.90
16485;DHT22;8353;47.856;12.344;2024-01-30T11:53:15;12.30;99.90
16485;DHT22;8353;47.856;12.344;2024-01-30T11:55:50;12.10;99.90
16485;DHT22;8353;47.856;12.344;2024-01-30T11:58:24;12.40;99.90
16485;DHT22;8353;47.856;12.344;2024-01-30T12:00:55;12.50;99.90
16485;DHT22;8353;47.856;12.344;2024-01-30T12:03:26;12.50;99.90
16485;DHT22;8353;47.856;12.344;2024-01-30T12:05:56;12.70;99.90
16485;DHT22;8353;47.856;12.344;2024-01-30T12:08:28;12.70;99.90
16485;DHT22;8353;47.856;12.344;2024-01-30T12:10:58;12.90;99.90
16485;DHT22;8353;47.856;12.344;2024-01-30T12:13:32;13.20;99.90
16485;DHT22;8353;47.856;12.344;2024-01-30T12:16:02;13.30;99.90
16485;DHT22;8353;47.856;12.344;2024-01-30T12:18:33;13.20;99.90
16485;DHT22;8353;47.856;12.344;2024-01-30T12:21:04;13.40;99.90
16485;DHT22;8353;47.856;12.344;2024-01-30T12:23:35;13.50;99.90
16485;DHT22;8353;47.856;12.344;2024-01-30T12:26:10;13.60;99.90
16485;DHT22;8353;47.856;12.344;2024-01-30T12:28:49;13.60;99.90
16485;DHT22;8353;47.856;12.344;2024-01-30T12:31:25;13.80;99.90
16485;DHT22;8353;47.856;12.344;2024-01-30T12:33:59;13.90;99.90
16485;DHT22;8353;47.856;12.344;2024-01-30T12:36:30;14.10;99.90
16485;DHT22;8353;47.856;12.344;2024-01-30T12:39:01;14.20;99.90
16485;DHT22;8353;47.856;12.344;2024-01-30T12:41:33;14.40;99.90
16485;DHT22;8353;47.856;12.344;2024-01-30T12:44:05;14.40;99.90
16485;DHT22;8353;47.856;12.344;2024-01-30T12:46:36;14.40;99.90
16485;DHT22;8353;47.856;12.344;2024-01-30T12:49:06;14.30;99.90
16485;DHT22;8353;47.856;12.344;2024-01-30T12:51:37;14.30;99.90
16485;DHT22;8353;47.856;12.344;2024-01-30T12:54:08;14.30;99.90
16485;DHT22;8353;47.856;12.344;2024-01-30T12:56:39;14.30;99.90
16485;DHT22;8353;47.856;12.344;2024-01-30T12:59:10;14.40;99.90
16485;DHT22;8353;47.856;12.344;2024-01-30T13:01:41;14.50;99.90
16485;DHT22;8353;47.856;12.344;2024-01-30T13:04:11;14.60;99.90
16485;DHT22;8353;47.856;12.344;2024-01-30T13:06:43;14.70;99.90
16485;DHT22;8353;47.856;12.344;2024-01-30T13:09:14;14.80;99.90
16485;DHT22;8353;47.856;12.344;2024-01-30T13:11:45;14.90;99.90
16485;DHT22;8353;47.856;12.344;2024-01-30T13:14:16;14.80;99.90
16485;DHT22;8353;47.856;12.344;2024-01-30T13:16:47;15.00;99.90
16485;DHT22;8353;47.856;12.344;2024-01-30T13:19:17;15.10;99.90
16485;DHT22;8353;47.856;12.344;2024-01-30T13:21:47;15.00;99.90
16485;DHT22;8353;47.856;12.344;2024-01-30T13:24:17;15.10;99.90
16485;DHT22;8353;47.856;12.344;2024-01-30T13:26:50;15.10;99.90
16485;DHT22;8353;47.856;12.344;2024-01-30T13:29:21;15.10;99.90
16485;DHT22;8353;47.856;12.344;2024-01-30T13:31:51;15.10;99.90
16485;DHT22;8353;47.856;12.344;2024-01-30T13:34:21;15.20;99.90
16485;DHT22;8353;47.856;12.344;2024-01-30T13:36:52;15.20;99.90
16485;DHT22;8353;47.856;12.344;2024-01-30T13:39:22;15.30;99.90
16485;DHT22;8353;47.856;12.344;2024-01-30T13:41:53;15.30;99.90
16485;DHT22;8353;47.856;12.344;2024-01-30T13:44:24;15.40;99.90
16485;DHT22;8353;47.856;12.344;2024-01-30T13:46:54;15.40;99.90
16485;DHT22;8353;47.856;12.344;2024-01-30T13:49:25;15.50;99.90
16485;DHT22;8353;47.856;12.344;2024-01-30T13:51:56;15.60;99.90
16485;DHT22;8353;47.856;12.344;2024-01-30T13:54:27;15.60;99.90
16485;DHT22;8353;47.856;12.344;2024-01-30T13:56:58;15.60;99.90
16485;DHT22;8353;47.856;12.344;2024-01-30T13:59:30;15.70;99.90
16485;DHT22;8353;47.856;12.344;2024-01-30T14:02:01;15.80;99.90
16485;DHT22;8353;47.856;12.344;2024-01-30T14:04:31;15.90;99.90
16485;DHT22;8353;47.856;12.344;2024-01-30T14:07:01;15.90;99.90
16485;DHT22;8353;47.856;12.344;2024-01-30T14:09:31;15.80;99.90
16485;DHT22;8353;47.856;12.344;2024-01-30T14:12:04;15.70;99.90
16485;DHT22;8353;47.856;12.344;2024-01-30T14:14:35;15.50;99.90
16485;DHT22;8353;47.856;12.344;2024-01-30T14:17:05;15.40;99.90
16485;DHT22;8353;47.856;12.344;2024-01-30T14:19:36;15.50;99.90
16485;DHT22;8353;47.856;12.344;2024-01-30T14:22:06;15.50;99.90
16485;DHT22;8353;47.856;12.344;2024-01-30T14:24:37;15.50;99.90
16485;DHT22;8353;47.856;12.344;2024-01-30T14:27:08;15.30;99.90
16485;DHT22;8353;47.856;12.344;2024-01-30T14:29:41;15.30;99.90
16485;DHT22;8353;47.856;12.344;2024-01-30T14:32:12;15.20;99.90
16485;DHT22;8353;47.856;12.344;2024-01-30T14:34:43;15.20;99.90
16485;DHT22;8353;47.856;12.344;2024-01-30T14:37:14;15.40;99.90
16485;DHT22;8353;47.856;12.344;2024-01-30T14:39:46;15.40;99.90
16485;DHT22;8353;47.856;12.344;2024-01-30T14:42:16;15.40;99.90
16485;DHT22;8353;47.856;12.344;2024-01-30T14:44:48;15.30;99.90
16485;DHT22;8353;47.856;12.344;2024-01-30T14:47:19;15.30;99.90
16485;DHT22;8353;47.856;12.344;2024-01-30T14:49:49;15.30;99.90
16485;DHT22;8353;47.856;12.344;2024-01-30T14:52:23;15.00;99.90
16485;DHT22;8353;47.856;12.344;2024-01-30T14:54:53;15.00;99.90
16485;DHT22;8353;47.856;12.344;2024-01-30T14:57:24;14.90;99.90
16485;DHT22;8353;47.856;12.344;2024-01-30T14:59:56;14.90;99.90
16485;DHT22;8353;47.856;12.344;2024-01-30T15:02:26;14.90;99.90
16485;DHT22;8353;47.856;12.344;2024-01-30T15:04:57;14.90;99.90
16485;DHT22;8353;47.856;12.344;2024-01-30T15:07:28;14.90;99.90
16485;DHT22;8353;47.856;12.344;2024-01-30T15:09:58;15.00;99.90
16485;DHT22;8353;47.856;12.344;2024-01-30T15:12:29;14.80;99.90
16485;DHT22;8353;47.856;12.344;2024-01-30T15:15:00;14.80;99.90
16485;DHT22;8353;47.856;12.344;2024-01-30T15:17:31;14.60;99.90
16485;DHT22;8353;47.856;12.344;2024-01-30T15:20:02;14.60;99.90
16485;DHT22;8353;47.856;12.344;2024-01-30T15:22:33;14.50;99.90
16485;DHT22;8353;47.856;12.344;2024-01-30T15:25:04;14.40;99.90
16485;DHT22;8353;47.856;12.344;2024-01-30T15:27:35;14.40;99.90
16485;DHT22;8353;47.856;12.344;2024-01-30T15:30:07;14.30;99.90
16485;DHT22;8353;47.856;12.344;2024-01-30T15:32:37;14.20;99.90
16485;DHT22;8353;47.856;12.344;2024-01-30T15:35:07;14.00;99.90
16485;DHT22;8353;47.856;12.344;2024-01-30T15:37:38;13.90;99.90
16485;DHT22;8353;47.856;12.344;2024-01-30T15:40:11;13.70;99.90
16485;DHT22;8353;47.856;12.344;2024-01-30T15:42:41;13.60;99.90
16485;DHT22;8353;47.856;12.344;2024-01-30T15:45:13;13.50;99.90
16485;DHT22;8353;47.856;12.344;2024-01-30T15:47:44;13.30;99.90
16485;DHT22;8353;47.856;12.344;2024-01-30T15:50:14;13.30;99.90
16485;DHT22;8353;47.856;12.344;2024-01-30T15:52:45;13.20;99.90
16485;DHT22;8353;47.856;12.344;2024-01-30T15:55:15;13.00;99.90
16485;DHT22;8353;47.856;12.344;2024-01-30T15:57:45;12.80;99.90
16485;DHT22;8353;47.856;12.344;2024-01-30T16:00:17;12.80;99.90
16485;DHT22;8353;47.856;12.344;2024-01-30T16:02:48;12.60;99.90
16485;DHT22;8353;47.856;12.344;2024-01-30T16:05:18;12.40;99.90